sensor_id;sensor_type;location;lat;lon;timestamp;pressure;altitude;pressure_sealevel;temperature;humidity
30421;BME280;17218;54.070;10.012;2023-04-19T00:01:48;103053.22;;;5.70;100.00
30421;BME280;17218;54.070;10.012;2023-04-19T00:04:16;103040.56;;;5.75;100.00
30421;BME280;17218;54.070;10.012;2023-04-19T00:06:44;103041.47;;;5.76;100.00
30421;BME280;17218;54.070;10.012;2023-04-19T00:09:11;103046.59;;;5.76;100.00
30421;BME280;17218;54.070;10.012;2023-04-19T00:11:38;103041.47;;;5.76;100.00
30421;BME280;17218;54.070;10.012;2023-04-19T00:14:04;103037.91;;;5.73;100.00
30421;BME280;17218;54.070;10.012;2023-04-19T00:16:31;103038.88;;;5.76;100.00
30421;BME280;17218;54.070;10.012;2023-04-19T00:18:57;103036.31;;;5.76;100.00
30421;BME280;17218;54.070;10.012;2023-04-19T00:21:25;103034.38;;;5.71;100.00
30421;BME280;17218;54.070;10.012;2023-04-19T00:23:52;103038.59;;;5.69;100.00
30421;BME280;17218;54.070;10.012;2023-04-19T00:26:19;103031.69;;;5.68;100.00
30421;BME280;17218;54.070;10.012;2023-04-19T00:28:45;103030.97;;;5.71;100.00
30421;BME280;17218;54.070;10.012;2023-04-19T00:31:12;103034.81;;;5.63;100.00
30421;BME280;17218;54.070;10.012;2023-04-19T00:33:38;103033.13;;;5.63;100.00
30421;BME280;17218;54.070;10.012;2023-04-19T00:36:05;103032.25;;;5.63;100.00
30421;BME280;17218;54.070;10.012;2023-04-19T00:38:33;103024.47;;;5.61;100.00
30421;BME280;17218;54.070;10.012;2023-04-19T00:41:00;103025.28;;;5.60;100.00
30421;BME280;17218;54.070;10.012;2023-04-19T00:43:26;103024.31;;;5.58;100.00
30421;BME280;17218;54.070;10.012;2023-04-19T00:45:53;103028.56;;;5.57;100.00
30421;BME280;17218;54.070;10.012;2023-04-19T00:48:19;103024.88;;;5.52;100.00
30421;BME280;17218;54.070;10.012;2023-04-19T00:50:46;103028.97;;;5.48;100.00
30421;BME280;17218;54.070;10.012;2023-04-19T00:53:13;103026.34;;;5.47;100.00
30421;BME280;17218;54.070;10.012;2023-04-19T00:55:41;103025.31;;;5.43;100.00
30421;BME280;17218;54.070;10.012;2023-04-19T00:58:08;103028.66;;;5.42;100.00
30421;BME280;17218;54.070;10.012;2023-04-19T01:00:35;103031.09;;;5.39;100.00
30421;BME280;17218;54.070;10.012;2023-04-19T01:03:02;103020.59;;;5.34;100.00
30421;BME280;17218;54.070;10.012;2023-04-19T01:05:29;103032.53;;;5.34;100.00
30421;BME280;17218;54.070;10.012;2023-04-19T01:07:56;103031.91;;;5.21;100.00
30421;BME280;17218;54.070;10.012;2023-04-19T01:10:22;103033.44;;;5.18;100.00
30421;BME280;17218;54.070;10.012;2023-04-19T01:12:50;103027.56;;;5.20;100.00
30421;BME280;17218;54.070;10.012;2023-04-19T01:15:16;103028.44;;;5.04;100.00
30421;BME280;17218;54.070;10.012;2023-04-19T01:17:43;103030.47;;;5.10;100.00
30421;BME280;17218;54.070;10.012;2023-04-19T01:20:10;103028.44;;;5.04;100.00
30421;BME280;17218;54.070;10.012;2023-04-19T01:22:39;103036.22;;;5.06;100.00
30421;BME280;17218;54.070;10.012;2023-04-19T01:25:06;103025.94;;;5.06;100.00
30421;BME280;17218;54.070;10.012;2023-04-19T01:27:33;103023.31;;;5.04;100.00
30421;BME280;17218;54.070;10.012;2023-04-19T01:29:59;103031.03;;;5.04;100.00
30421;BME280;17218;54.070;10.012;2023-04-19T01:32:26;103027.47;;;5.02;100.00
30421;BME280;17218;54.070;10.012;2023-04-19T01:34:52;103026.50;;;5.00;100.00
30421;BME280;17218;54.070;10.012;2023-04-19T01:37:19;103036.78;;;5.00;100.00
30421;BME280;17218;54.070;10.012;2023-04-19T01:39:46;103043.53;;;4.98;100.00
30421;BME280;17218;54.070;10.012;2023-04-19T01:42:13;103037.53;;;4.97;100.00
30421;BME280;17218;54.070;10.012;2023-04-19T01:44:39;103033.25;;;4.98;100.00
30421;BME280;17218;54.070;10.012;2023-04-19T01:47:06;103034.84;;;4.96;100.00
30421;BME280;17218;54.070;10.012;2023-04-19T01:49:32;103021.16;;;4.95;100.00
30421;BME280;17218;54.070;10.012;2023-04-19T01:51:59;103026.19;;;4.94;100.00
30421;BME280;17218;54.070;10.012;2023-04-19T01:54:25;103014.06;;;4.91;100.00
30421;BME280;17218;54.070;10.012;2023-04-19T01:56:53;103020.81;;;4.89;100.00
30421;BME280;17218;54.070;10.012;2023-04-19T01:59:20;103018.94;;;4.86;100.00
30421;BME280;17218;54.070;10.012;2023-04-19T02:01:46;103016.22;;;4.83;100.00
30421;BME280;17218;54.070;10.012;2023-04-19T02:04:13;103009.34;;;4.82;100.00
30421;BME280;17218;54.070;10.012;2023-04-19T02:06:39;103014.28;;;4.79;100.00
30421;BME280;17218;54.070;10.012;2023-04-19T02:09:06;103010.66;;;4.75;100.00
30421;BME280;17218;54.070;10.012;2023-04-19T02:11:33;103011.47;;;4.74;100.00
30421;BME280;17218;54.070;10.012;2023-04-19T02:14:01;103007.06;;;4.72;100.00
30421;BME280;17218;54.070;10.012;2023-04-19T02:16:28;103008.50;;;4.67;100.00
30421;BME280;17218;54.070;10.012;2023-04-19T02:18:54;103006.81;;;4.67;100.00
30421;BME280;17218;54.070;10.012;2023-04-19T02:21:21;103009.38;;;4.67;100.00
30421;BME280;17218;54.070;10.012;2023-04-19T02:23:47;103012.09;;;4.70;100.00
30421;BME280;17218;54.070;10.012;2023-04-19T02:26:14;103008.56;;;4.68;100.00
30421;BME280;17218;54.070;10.012;2023-04-19T02:28:40;103006.09;;;4.70;100.00
30421;BME280;17218;54.070;10.012;2023-04-19T02:31:08;102995.09;;;4.72;100.00
30421;BME280;17218;54.070;10.012;2023-04-19T02:33:34;103001.22;;;4.74;100.00
30421;BME280;17218;54.070;10.012;2023-04-19T02:36:03;103002.09;;;4.75;100.00
30421;BME280;17218;54.070;10.012;2023-04-19T02:38:30;102985.00;;;4.75;100.00
30421;BME280;17218;54.070;10.012;2023-04-19T02:40:56;103001.38;;;4.77;100.00
30421;BME280;17218;54.070;10.012;2023-04-19T02:43:24;102986.03;;;4.79;100.00
30421;BME280;17218;54.070;10.012;2023-04-19T02:45:52;102991.28;;;4.81;100.00
30421;BME280;17218;54.070;10.012;2023-04-19T02:48:20;102992.22;;;4.83;100.00
30421;BME280;17218;54.070;10.012;2023-04-19T02:50:46;102979.38;;;4.83;100.00
30421;BME280;17218;54.070;10.012;2023-04-19T02:53:13;102981.94;;;4.83;100.00
30421;BME280;17218;54.070;10.012;2023-04-19T02:55:39;102980.19;;;4.82;100.00
30421;BME280;17218;54.070;10.012;2023-04-19T02:58:06;102981.09;;;4.82;100.00
30421;BME280;17218;54.070;10.012;2023-04-19T03:00:33;102975.88;;;4.81;100.00
30421;BME280;17218;54.070;10.012;2023-04-19T03:02:59;102984.19;;;4.76;100.00
30421;BME280;17218;54.070;10.012;2023-04-19T03:05:29;102979.84;;;4.75;100.00
30421;BME280;17218;54.070;10.012;2023-04-19T03:07:56;102976.41;;;4.75;100.00
30421;BME280;17218;54.070;10.012;2023-04-19T03:10:22;102972.16;;;4.75;100.00
30421;BME280;17218;54.070;10.012;2023-04-19T03:12:49;102977.28;;;4.75;100.00
30421;BME280;17218;54.070;10.012;2023-04-19T03:15:16;102981.63;;;4.76;100.00
30421;BME280;17218;54.070;10.012;2023-04-19T03:17:43;102974.72;;;4.75;100.00
30421;BME280;17218;54.070;10.012;2023-04-19T03:23:45;102972.97;;;4.74;100.00
30421;BME280;17218;54.070;10.012;2023-04-19T03:26:12;102971.38;;;4.76;100.00
30421;BME280;17218;54.070;10.012;2023-04-19T03:28:38;102960.84;;;4.72;100.00
30421;BME280;17218;54.070;10.012;2023-04-19T03:31:05;102958.25;;;4.72;100.00
30421;BME280;17218;54.070;10.012;2023-04-19T03:33:31;102954.72;;;4.70;100.00
30421;BME280;17218;54.070;10.012;2023-04-19T03:35:58;102948.72;;;4.69;100.00
30421;BME280;17218;54.070;10.012;2023-04-19T03:38:25;102956.34;;;4.68;100.00
30421;BME280;17218;54.070;10.012;2023-04-19T03:40:52;102952.97;;;4.69;100.00
30421;BME280;17218;54.070;10.012;2023-04-19T03:43:20;102952.16;;;4.70;100.00
30421;BME280;17218;54.070;10.012;2023-04-19T03:45:48;102949.44;;;4.67;100.00
30421;BME280;17218;54.070;10.012;2023-04-19T03:48:15;102947.69;;;4.65;100.00
30421;BME280;17218;54.070;10.012;2023-04-19T03:50:41;102950.97;;;4.63;100.00
30421;BME280;17218;54.070;10.012;2023-04-19T03:53:08;102945.69;;;4.60;100.00
30421;BME280;17218;54.070;10.012;2023-04-19T03:55:34;102943.88;;;4.59;100.00
30421;BME280;17218;54.070;10.012;2023-04-19T03:58:02;102941.16;;;4.56;100.00
30421;BME280;17218;54.070;10.012;2023-04-19T04:00:28;102952.97;;;4.52;100.00
30421;BME280;17218;54.070;10.012;2023-04-19T04:02:55;102949.50;;;4.51;100.00
30421;BME280;17218;54.070;10.012;2023-04-19T04:05:21;102945.25;;;4.52;100.00
30421;BME280;17218;54.070;10.012;2023-04-19T04:07:48;102949.19;;;4.45;100.00
30421;BME280;17218;54.070;10.012;2023-04-19T04:10:15;102945.03;;;4.47;100.00
30421;BME280;17218;54.070;10.012;2023-04-19T04:12:41;102957.03;;;4.48;100.00
30421;BME280;17218;54.070;10.012;2023-04-19T04:15:10;102950.94;;;4.46;100.00
30421;BME280;17218;54.070;10.012;2023-04-19T04:17:36;102956.00;;;4.45;100.00
30421;BME280;17218;54.070;10.012;2023-04-19T04:20:03;102941.50;;;4.45;100.00
30421;BME280;17218;54.070;10.012;2023-04-19T04:22:32;102953.34;;;4.43;100.00
30421;BME280;17218;54.070;10.012;2023-04-19T04:24:58;102948.22;;;4.43;100.00
30421;BME280;17218;54.070;10.012;2023-04-19T04:27:26;102944.59;;;4.39;100.00
30421;BME280;17218;54.070;10.012;2023-04-19T04:29:52;102944.59;;;4.39;100.00
30421;BME280;17218;54.070;10.012;2023-04-19T04:32:22;102943.63;;;4.37;100.00
30421;BME280;17218;54.070;10.012;2023-04-19T04:34:49;102939.53;;;4.41;100.00
30421;BME280;17218;54.070;10.012;2023-04-19T04:37:15;102952.47;;;4.43;100.00
30421;BME280;17218;54.070;10.012;2023-04-19T04:39:42;102947.41;;;4.44;100.00
30421;BME280;17218;54.070;10.012;2023-04-19T04:42:08;102944.06;;;4.45;100.00
30421;BME280;17218;54.070;10.012;2023-04-19T04:44:36;102941.72;;;4.50;100.00
30421;BME280;17218;54.070;10.012;2023-04-19T04:47:04;102945.25;;;4.52;100.00
30421;BME280;17218;54.070;10.012;2023-04-19T04:49:32;102946.31;;;4.56;100.00
30421;BME280;17218;54.070;10.012;2023-04-19T04:51:59;102945.69;;;4.60;100.00
30421;BME280;17218;54.070;10.012;2023-04-19T04:54:25;102939.91;;;4.64;100.00
30421;BME280;17218;54.070;10.012;2023-04-19T04:56:52;102950.34;;;4.67;100.00
30421;BME280;17218;54.070;10.012;2023-04-19T04:59:18;102941.19;;;4.72;100.00
30421;BME280;17218;54.070;10.012;2023-04-19T05:01:45;102939.72;;;4.77;100.00
30421;BME280;17218;54.070;10.012;2023-04-19T05:04:11;102940.63;;;4.78;100.00
30421;BME280;17218;54.070;10.012;2023-04-19T05:06:39;102939.25;;;4.85;100.00
30421;BME280;17218;54.070;10.012;2023-04-19T05:09:06;102942.84;;;4.88;100.00
30421;BME280;17218;54.070;10.012;2023-04-19T05:11:32;102943.13;;;4.93;100.00
30421;BME280;17218;54.070;10.012;2023-04-19T05:13:59;102939.16;;;5.00;100.00
30421;BME280;17218;54.070;10.012;2023-04-19T05:16:25;102929.22;;;5.06;100.00
30421;BME280;17218;54.070;10.012;2023-04-19T05:18:52;102938.03;;;5.11;100.00
30421;BME280;17218;54.070;10.012;2023-04-19T05:21:18;102937.41;;;5.16;100.00
30421;BME280;17218;54.070;10.012;2023-04-19T05:23:46;102934.25;;;5.21;100.00
30421;BME280;17218;54.070;10.012;2023-04-19T05:26:13;102937.94;;;5.27;100.00
30421;BME280;17218;54.070;10.012;2023-04-19T05:28:40;102940.72;;;5.31;100.00
30421;BME280;17218;54.070;10.012;2023-04-19T05:31:07;102935.00;;;5.37;100.00
30421;BME280;17218;54.070;10.012;2023-04-19T05:33:34;102936.13;;;5.42;100.00
30421;BME280;17218;54.070;10.012;2023-04-19T05:36:00;102930.13;;;5.42;100.00
30421;BME280;17218;54.070;10.012;2023-04-19T05:38:27;102929.50;;;5.47;100.00
30421;BME280;17218;54.070;10.012;2023-04-19T05:40:55;102930.72;;;5.54;100.00
30421;BME280;17218;54.070;10.012;2023-04-19T05:43:21;102930.41;;;5.66;100.00
30421;BME280;17218;54.070;10.012;2023-04-19T05:45:48;102937.47;;;5.70;100.00
30421;BME280;17218;54.070;10.012;2023-04-19T05:48:14;102925.78;;;5.77;100.00
30421;BME280;17218;54.070;10.012;2023-04-19T05:50:41;102935.72;;;5.88;100.00
30421;BME280;17218;54.070;10.012;2023-04-19T05:53:07;102931.69;;;5.93;100.00
30421;BME280;17218;54.070;10.012;2023-04-19T05:55:33;102931.81;;;5.96;100.00
30421;BME280;17218;54.070;10.012;2023-04-19T05:58:01;102929.78;;;6.07;100.00
30421;BME280;17218;54.070;10.012;2023-04-19T06:00:28;102939.72;;;6.17;100.00
30421;BME280;17218;54.070;10.012;2023-04-19T06:02:55;102934.22;;;6.29;100.00
30421;BME280;17218;54.070;10.012;2023-04-19T06:05:21;102933.94;;;6.41;100.00
30421;BME280;17218;54.070;10.012;2023-04-19T06:07:48;102933.41;;;6.49;100.00
30421;BME280;17218;54.070;10.012;2023-04-19T06:10:14;102935.28;;;6.53;100.00
30421;BME280;17218;54.070;10.012;2023-04-19T06:12:41;102942.56;;;6.62;100.00
30421;BME280;17218;54.070;10.012;2023-04-19T06:15:09;102935.31;;;6.73;100.00
30421;BME280;17218;54.070;10.012;2023-04-19T06:17:37;102933.81;;;6.78;100.00
30421;BME280;17218;54.070;10.012;2023-04-19T06:20:04;102938.06;;;6.77;100.00
30421;BME280;17218;54.070;10.012;2023-04-19T06:22:32;102947.66;;;6.80;100.00
30421;BME280;17218;54.070;10.012;2023-04-19T06:25:00;102948.16;;;6.92;100.00
30421;BME280;17218;54.070;10.012;2023-04-19T06:27:26;102942.59;;;7.03;100.00
30421;BME280;17218;54.070;10.012;2023-04-19T06:29:53;102946.56;;;7.16;100.00
30421;BME280;17218;54.070;10.012;2023-04-19T06:32:20;102940.00;;;7.23;100.00
30421;BME280;17218;54.070;10.012;2023-04-19T06:34:47;102947.19;;;7.30;100.00
30421;BME280;17218;54.070;10.012;2023-04-19T06:37:13;102929.53;;;7.39;100.00
30421;BME280;17218;54.070;10.012;2023-04-19T06:39:40;102936.69;;;7.47;100.00
30421;BME280;17218;54.070;10.012;2023-04-19T06:42:06;102935.75;;;7.45;100.00
30421;BME280;17218;54.070;10.012;2023-04-19T06:44:33;102938.75;;;7.56;100.00
30421;BME280;17218;54.070;10.012;2023-04-19T06:46:59;102935.03;;;7.70;100.00
30421;BME280;17218;54.070;10.012;2023-04-19T06:49:27;102939.00;;;7.83;100.00
30421;BME280;17218;54.070;10.012;2023-04-19T06:51:54;102939.88;;;7.84;100.00
30421;BME280;17218;54.070;10.012;2023-04-19T06:54:20;102935.81;;;7.91;100.00
30421;BME280;17218;54.070;10.012;2023-04-19T06:56:48;102935.94;;;7.94;100.00
30421;BME280;17218;54.070;10.012;2023-04-19T06:59:16;102935.31;;;7.99;100.00
30421;BME280;17218;54.070;10.012;2023-04-19T07:01:43;102930.25;;;8.03;100.00
30421;BME280;17218;54.070;10.012;2023-04-19T07:04:10;102938.44;;;8.14;100.00
30421;BME280;17218;54.070;10.012;2023-04-19T07:06:38;102931.91;;;8.23;100.00
30421;BME280;17218;54.070;10.012;2023-04-19T07:09:06;102921.88;;;8.31;100.00
30421;BME280;17218;54.070;10.012;2023-04-19T07:11:32;102925.72;;;8.43;100.00
30421;BME280;17218;54.070;10.012;2023-04-19T07:13:59;102927.78;;;8.52;100.00
30421;BME280;17218;54.070;10.012;2023-04-19T07:16:26;102916.91;;;8.61;100.00
30421;BME280;17218;54.070;10.012;2023-04-19T07:18:52;102915.16;;;8.59;100.00
30421;BME280;17218;54.070;10.012;2023-04-19T07:21:19;102911.94;;;8.65;100.00
30421;BME280;17218;54.070;10.012;2023-04-19T07:23:47;102914.44;;;8.64;100.00
30421;BME280;17218;54.070;10.012;2023-04-19T07:26:13;102909.44;;;8.68;100.00
30421;BME280;17218;54.070;10.012;2023-04-19T07:28:40;102917.34;;;8.73;100.00
30421;BME280;17218;54.070;10.012;2023-04-19T07:31:07;102909.88;;;8.81;100.00
30421;BME280;17218;54.070;10.012;2023-04-19T07:33:33;102906.69;;;8.88;100.00
30421;BME280;17218;54.070;10.012;2023-04-19T07:36:00;102913.16;;;9.01;100.00
30421;BME280;17218;54.070;10.012;2023-04-19T07:38:26;102899.56;;;9.07;100.00
30421;BME280;17218;54.070;10.012;2023-04-19T07:40:54;102912.38;;;9.04;100.00
30421;BME280;17218;54.070;10.012;2023-04-19T07:43:21;102898.63;;;9.05;100.00
30421;BME280;17218;54.070;10.012;2023-04-19T07:45:47;102899.78;;;9.13;100.00
30421;BME280;17218;54.070;10.012;2023-04-19T07:48:13;102898.16;;;9.17;100.00
30421;BME280;17218;54.070;10.012;2023-04-19T07:50:40;102899.03;;;9.17;100.00
30421;BME280;17218;54.070;10.012;2023-04-19T07:53:06;102900.34;;;9.32;100.00
30421;BME280;17218;54.070;10.012;2023-04-19T07:55:33;102897.09;;;9.38;100.00
30421;BME280;17218;54.070;10.012;2023-04-19T07:58:02;102898.41;;;9.52;100.00
30421;BME280;17218;54.070;10.012;2023-04-19T08:00:28;102889.16;;;9.59;100.00
30421;BME280;17218;54.070;10.012;2023-04-19T08:02:55;102894.59;;;9.67;100.00
30421;BME280;17218;54.070;10.012;2023-04-19T08:05:22;102895.09;;;9.84;100.00
30421;BME280;17218;54.070;10.012;2023-04-19T08:07:50;102888.56;;;9.97;100.00
30421;BME280;17218;54.070;10.012;2023-04-19T08:10:18;102900.03;;;10.06;100.00
30421;BME280;17218;54.070;10.012;2023-04-19T08:12:44;102886.13;;;10.02;100.00
30421;BME280;17218;54.070;10.012;2023-04-19T08:15:12;102889.72;;;10.07;100.00
30421;BME280;17218;54.070;10.012;2023-04-19T08:17:39;102889.22;;;10.21;100.00
30421;BME280;17218;54.070;10.012;2023-04-19T08:20:08;102891.31;;;10.33;99.71
30421;BME280;17218;54.070;10.012;2023-04-19T08:22:35;102888.03;;;10.38;100.00
30421;BME280;17218;54.070;10.012;2023-04-19T08:25:01;102885.78;;;10.51;99.39
30421;BME280;17218;54.070;10.012;2023-04-19T08:27:28;102878.34;;;10.64;97.40
30421;BME280;17218;54.070;10.012;2023-04-19T08:29:54;102878.75;;;10.78;94.08
30421;BME280;17218;54.070;10.012;2023-04-19T08:32:22;102852.25;;;10.91;92.05
30421;BME280;17218;54.070;10.012;2023-04-19T08:34:49;102868.50;;;10.84;86.25
30421;BME280;17218;54.070;10.012;2023-04-19T08:37:15;102857.53;;;10.93;87.71
30421;BME280;17218;54.070;10.012;2023-04-19T08:39:44;102853.72;;;11.15;89.57
30421;BME280;17218;54.070;10.012;2023-04-19T08:42:24;102857.59;;;11.33;87.41
30421;BME280;17218;54.070;10.012;2023-04-19T08:44:51;102854.53;;;11.50;81.26
30421;BME280;17218;54.070;10.012;2023-04-19T08:47:18;102851.00;;;11.48;81.41
30421;BME280;17218;54.070;10.012;2023-04-19T08:49:47;102854.75;;;11.59;85.71
30421;BME280;17218;54.070;10.012;2023-04-19T08:52:14;102845.38;;;11.67;82.96
30421;BME280;17218;54.070;10.012;2023-04-19T08:54:41;102852.63;;;11.83;81.36
30421;BME280;17218;54.070;10.012;2023-04-19T08:57:08;102847.66;;;11.92;77.60
30421;BME280;17218;54.070;10.012;2023-04-19T08:59:36;102839.09;;;11.98;79.67
30421;BME280;17218;54.070;10.012;2023-04-19T09:02:03;102839.09;;;11.98;76.92
30421;BME280;17218;54.070;10.012;2023-04-19T09:04:29;102840.81;;;11.97;80.79
30421;BME280;17218;54.070;10.012;2023-04-19T09:06:57;102832.28;;;12.03;77.24
30421;BME280;17218;54.070;10.012;2023-04-19T09:09:25;102828.13;;;12.11;73.54
30421;BME280;17218;54.070;10.012;2023-04-19T09:11:52;102825.84;;;12.27;75.93
30421;BME280;17218;54.070;10.012;2023-04-19T09:14:21;102823.25;;;12.27;72.81
30421;BME280;17218;54.070;10.012;2023-04-19T09:16:48;102827.75;;;12.37;76.46
30421;BME280;17218;54.070;10.012;2023-04-19T09:19:16;102815.75;;;12.43;75.40
30421;BME280;17218;54.070;10.012;2023-04-19T09:21:43;102821.31;;;12.63;73.35
30421;BME280;17218;54.070;10.012;2023-04-19T09:24:11;102813.63;;;12.71;74.95
30421;BME280;17218;54.070;10.012;2023-04-19T09:26:38;102812.16;;;12.87;76.04
30421;BME280;17218;54.070;10.012;2023-04-19T09:29:18;102810.69;;;13.05;77.39
30421;BME280;17218;54.070;10.012;2023-04-19T09:31:56;102813.59;;;13.23;73.59
30421;BME280;17218;54.070;10.012;2023-04-19T09:34:23;102816.38;;;13.36;72.30
30421;BME280;17218;54.070;10.012;2023-04-19T09:36:49;102814.38;;;13.18;64.95
30421;BME280;17218;54.070;10.012;2023-04-19T09:39:29;102810.19;;;13.29;64.64
30421;BME280;17218;54.070;10.012;2023-04-19T09:41:57;102807.63;;;13.32;63.36
30421;BME280;17218;54.070;10.012;2023-04-19T09:44:24;102813.06;;;13.48;62.29
30421;BME280;17218;54.070;10.012;2023-04-19T09:46:51;102801.94;;;13.58;60.61
30421;BME280;17218;54.070;10.012;2023-04-19T09:49:18;102795.88;;;13.59;58.48
30421;BME280;17218;54.070;10.012;2023-04-19T09:51:48;102795.16;;;13.71;57.31
30421;BME280;17218;54.070;10.012;2023-04-19T09:54:16;102792.59;;;13.75;56.87
30421;BME280;17218;54.070;10.012;2023-04-19T09:56:46;102790.91;;;13.78;56.43
30421;BME280;17218;54.070;10.012;2023-04-19T09:59:12;102791.84;;;13.85;53.32
30421;BME280;17218;54.070;10.012;2023-04-19T10:01:42;102775.50;;;13.97;57.69
30421;BME280;17218;54.070;10.012;2023-04-19T10:04:09;102772.19;;;14.14;51.37
30421;BME280;17218;54.070;10.012;2023-04-19T10:06:37;102767.06;;;14.20;50.93
30421;BME280;17218;54.070;10.012;2023-04-19T10:09:04;102765.44;;;14.33;49.82
30421;BME280;17218;54.070;10.012;2023-04-19T10:11:32;102757.72;;;14.44;52.14
30421;BME280;17218;54.070;10.012;2023-04-19T10:14:05;102764.75;;;14.58;51.53
30421;BME280;17218;54.070;10.012;2023-04-19T10:16:33;102756.19;;;14.74;49.30
30421;BME280;17218;54.070;10.012;2023-04-19T10:19:01;102750.97;;;14.73;47.74
30421;BME280;17218;54.070;10.012;2023-04-19T10:21:28;102749.25;;;14.76;48.70
30421;BME280;17218;54.070;10.012;2023-04-19T10:23:56;102758.66;;;14.55;46.23
30421;BME280;17218;54.070;10.012;2023-04-19T10:26:23;102760.16;;;14.25;45.44
30421;BME280;17218;54.070;10.012;2023-04-19T10:28:53;102754.03;;;14.25;47.91
30421;BME280;17218;54.070;10.012;2023-04-19T10:31:24;102743.88;;;14.51;49.63
30421;BME280;17218;54.070;10.012;2023-04-19T10:33:51;102737.09;;;14.78;50.01
30421;BME280;17218;54.070;10.012;2023-04-19T10:36:19;102737.84;;;14.63;43.71
30421;BME280;17218;54.070;10.012;2023-04-19T10:38:47;102738.03;;;14.82;44.83
30421;BME280;17218;54.070;10.012;2023-04-19T10:41:16;102736.38;;;14.92;42.99
30421;BME280;17218;54.070;10.012;2023-04-19T10:43:45;102736.44;;;15.05;45.89
30421;BME280;17218;54.070;10.012;2023-04-19T10:46:14;102731.28;;;15.16;44.33
30421;BME280;17218;54.070;10.012;2023-04-19T10:48:51;102734.78;;;15.24;42.28
30421;BME280;17218;54.070;10.012;2023-04-19T10:51:22;102731.16;;;14.97;40.21
30421;BME280;17218;54.070;10.012;2023-04-19T10:53:54;102732.19;;;15.27;43.16
30421;BME280;17218;54.070;10.012;2023-04-19T10:59:15;102731.47;;;15.72;41.94
30421;BME280;17218;54.070;10.012;2023-04-19T11:01:49;102734.13;;;15.92;40.50
30421;BME280;17218;54.070;10.012;2023-04-19T11:04:18;102727.25;;;16.10;38.91
30421;BME280;17218;54.070;10.012;2023-04-19T11:06:59;102723.72;;;15.94;38.23
30421;BME280;17218;54.070;10.012;2023-04-19T11:09:28;102720.28;;;16.14;39.14
30421;BME280;17218;54.070;10.012;2023-04-19T11:11:57;102714.16;;;16.57;39.69
30421;BME280;17218;54.070;10.012;2023-04-19T11:14:25;102700.16;;;16.97;41.73
30421;BME280;17218;54.070;10.012;2023-04-19T11:16:52;102709.63;;;17.39;39.11
30421;BME280;17218;54.070;10.012;2023-04-19T11:19:20;102692.97;;;17.52;38.38
30421;BME280;17218;54.070;10.012;2023-04-19T11:21:47;102703.88;;;18.25;40.45
30421;BME280;17218;54.070;10.012;2023-04-19T11:24:15;102703.72;;;18.39;37.08
30421;BME280;17218;54.070;10.012;2023-04-19T11:26:43;102694.19;;;19.17;38.76
30421;BME280;17218;54.070;10.012;2023-04-19T11:29:10;102690.19;;;20.65;34.49
30421;BME280;17218;54.070;10.012;2023-04-19T11:31:36;102686.59;;;21.54;32.13
30421;BME280;17218;54.070;10.012;2023-04-19T11:34:04;102688.81;;;21.73;31.51
30421;BME280;17218;54.070;10.012;2023-04-19T11:36:31;102689.69;;;22.79;30.30
30421;BME280;17218;54.070;10.012;2023-04-19T11:39:01;102675.56;;;24.23;30.37
30421;BME280;17218;54.070;10.012;2023-04-19T11:41:28;102681.00;;;26.68;28.02
30421;BME280;17218;54.070;10.012;2023-04-19T11:43:54;102663.28;;;27.08;25.33
30421;BME280;17218;54.070;10.012;2023-04-19T11:46:21;102665.66;;;27.69;25.85
30421;BME280;17218;54.070;10.012;2023-04-19T11:48:52;102667.50;;;28.55;24.85
30421;BME280;17218;54.070;10.012;2023-04-19T11:51:19;102658.78;;;28.18;23.21
30421;BME280;17218;54.070;10.012;2023-04-19T11:53:55;102672.25;;;28.15;22.05
30421;BME280;17218;54.070;10.012;2023-04-19T11:56:29;102665.13;;;29.32;23.02
30421;BME280;17218;54.070;10.012;2023-04-19T11:58:56;102654.59;;;29.92;21.73
30421;BME280;17218;54.070;10.012;2023-04-19T12:01:34;102655.88;;;29.07;22.34
30421;BME280;17218;54.070;10.012;2023-04-19T12:04:03;102665.66;;;28.90;22.51
30421;BME280;17218;54.070;10.012;2023-04-19T12:06:30;102651.41;;;29.85;21.59
30421;BME280;17218;54.070;10.012;2023-04-19T12:08:58;102658.06;;;30.38;22.43
30421;BME280;17218;54.070;10.012;2023-04-19T12:11:25;102650.94;;;31.23;20.39
30421;BME280;17218;54.070;10.012;2023-04-19T12:14:07;102643.81;;;32.03;21.32
30421;BME280;17218;54.070;10.012;2023-04-19T12:16:34;102644.44;;;32.83;19.79
30421;BME280;17218;54.070;10.012;2023-04-19T12:19:09;102638.09;;;32.60;19.37
30421;BME280;17218;54.070;10.012;2023-04-19T12:21:38;102641.94;;;30.96;18.77
30421;BME280;17218;54.070;10.012;2023-04-19T12:24:06;102634.84;;;29.16;20.72
30421;BME280;17218;54.070;10.012;2023-04-19T12:26:33;102635.03;;;28.97;20.43
30421;BME280;17218;54.070;10.012;2023-04-19T12:29:00;102636.25;;;28.75;20.54
30421;BME280;17218;54.070;10.012;2023-04-19T12:31:27;102634.78;;;28.69;20.64
30421;BME280;17218;54.070;10.012;2023-04-19T12:33:56;102634.59;;;28.89;19.77
30421;BME280;17218;54.070;10.012;2023-04-19T12:36:23;102624.41;;;27.42;21.29
30421;BME280;17218;54.070;10.012;2023-04-19T12:38:50;102622.91;;;28.75;20.59
30421;BME280;17218;54.070;10.012;2023-04-19T12:41:17;102616.19;;;30.23;19.17
30421;BME280;17218;54.070;10.012;2023-04-19T12:43:45;102622.47;;;30.94;19.86
30421;BME280;17218;54.070;10.012;2023-04-19T12:46:11;102612.19;;;31.82;18.26
30421;BME280;17218;54.070;10.012;2023-04-19T12:48:38;102616.56;;;32.35;18.43